Aidamar — ICSJ — position and weather

sailwx.info

Track history (hours):
 
Tides and Currents Weather Stations Pressure Air Temp Water Temp Dewpoint Dewpoint Depression Visibility Wind Speed Wind Dir Waves Ship Positions

Aidamar

Last reported at 2015-Jul-28 23:32 UTC. Time now 2015-Jul-29 00:34 UTC.
Position N 60°02' E 027°13'.

Length 253 m; draft 7.3 m.

Type: Passenger vessel. MMSI: 247312900.

Date/timePositionNaut miles runAvg speedWind from/ knotsBaromVisibWave heightAir tempDewpointWater temp
2015-Jul-28 23:32N 60°02' E 027°13'7614.6
2015-Jul-28 18:18N 59°59' E 029°46'810.5
2015-Jul-28 17:33N 59°55' E 029°60'6 5.7
2015-Jul-28 16:31N 59°57' E 030°11'0 0.0
2015-Jul-28 15:32N 59°57' E 030°11'0 0.0
2015-Jul-28 14:33N 59°57' E 030°11'0 0.0
2015-Jul-28 13:31N 59°57' E 030°11'0 0.0
2015-Jul-28 12:32N 59°57' E 030°11'0 0.0
2015-Jul-28 11:32N 59°57' E 030°11'0 0.0
2015-Jul-28 10:32N 59°57' E 030°11'0 0.0
2015-Jul-28 09:32N 59°57' E 030°11'0 0.0
2015-Jul-28 08:30N 59°57' E 030°11'0 0.0
2015-Jul-28 07:31N 59°57' E 030°11'0 0.0
2015-Jul-28 06:31N 59°57' E 030°11'0 0.0
2015-Jul-28 05:31N 59°57' E 030°11'0 0.0
2015-Jul-28 04:33N 59°57' E 030°11'3 3.3
2015-Jul-28 03:33N 59°56' E 030°05'1110.7
2015-Jul-28 02:33N 59°59' E 029°44'1211.8
2015-Jul-28 01:33N 60°02' E 029°21'7214.4
2015-Jul-27 20:33N 59°58' E 026°58'1515.0
2015-Jul-27 19:34N 59°57' E 026°28'5016.1
2015-Jul-27 16:25N 59°43' E 024°52'1113.2
2015-Jul-27 15:33N 59°32' E 024°44'5 1.2
2015-Jul-27 11:07N 59°27' E 024°46'0 0.0
2015-Jul-27 07:26N 59°27' E 024°46'0 0.0
2015-Jul-27 06:31N 59°27' E 024°46'0 0.0
2015-Jul-27 05:33N 59°27' E 024°46'36 8.9
2015-Jul-27 01:33N 59°30' E 023°36'35214.6
2015-Jul-26 01:23N 55°37' E 015°22'1416.3
2015-Jul-26 00:33N 55°31' E 015°01'1615.9
2015-Jul-25 23:33N 55°22' E 014°37'1615.9
2015-Jul-25 22:34N 55°10' E 014°20'1515.1
2015-Jul-25 21:33N 54°60' E 013°60'1615.6
2015-Jul-25 20:33N 54°55' E 013°34'3415.4
2015-Jul-25 18:23N 54°43' E 012°39'1515.4
2015-Jul-25 17:26N 54°35' E 012°19'1315.3
2015-Jul-25 16:34N 54°23' E 012°09'1212.0
2015-Jul-25 15:31N 54°11' E 012°06'0 0.0
2015-Jul-25 12:31N 54°11' E 012°06'0 0.0
2015-Jul-25 11:19N 54°11' E 012°06'0 0.0
2015-Jul-25 10:33N 54°11' E 012°06'0 0.0
2015-Jul-25 09:24N 54°11' E 012°06'0 0.0
2015-Jul-25 08:15N 54°11' E 012°06'0 0.0
2015-Jul-25 07:33N 54°11' E 012°06'0 0.0
2015-Jul-25 06:32N 54°11' E 012°06'0 0.0
2015-Jul-25 05:23N 54°11' E 012°06'0 0.0
2015-Jul-25 04:34N 54°11' E 012°06'4 4.1
2015-Jul-25 03:34N 54°14' E 012°03'1211.7
2015-Jul-25 02:33N 54°26' E 012°02'1514.7
2015-Jul-25 01:32N 54°38' E 012°18'9 9.4
2015-Jul-25 00:34N 54°43' E 012°31'1515.4
2015-Jul-24 23:34N 54°50' E 012°55'1616.1
2015-Jul-24 22:34N 54°56' E 013°21'1616.1
2015-Jul-24 21:34N 55°02' E 013°47'1515.4
2015-Jul-24 20:34N 55°09' E 014°11'1615.6
2015-Jul-24 19:34N 55°21' E 014°28'1615.9
2015-Jul-24 18:34N 55°32' E 014°49'1616.0
2015-Jul-24 17:34N 55°40' E 015°14'1615.7
2015-Jul-24 16:33N 55°47' E 015°39'1915.7
2015-Jul-24 15:22N 55°56' E 016°07'8614.9
2015-Jul-24 09:33N 57°11' E 017°28'134 8.3
2015-Jul-23 17:26N 59°22' E 018°16'4 1.4
2015-Jul-23 14:22N 59°21' E 018°08'0 0.0
2015-Jul-23 13:18N 59°21' E 018°08'0 0.0
2015-Jul-23 12:15N 59°21' E 018°08'0 0.0
2015-Jul-23 11:30N 59°21' E 018°08'0 0.0
2015-Jul-23 10:33N 59°21' E 018°08'0 0.0
2015-Jul-23 09:28N 59°21' E 018°08'0 0.0
2015-Jul-23 08:22N 59°21' E 018°08'1 1.4
2015-Jul-23 07:33N 59°20' E 018°10'10011.1
2015-Jul-22 22:31N 59°32' E 021°26'1515.7
2015-Jul-22 21:33N 59°29' E 021°55'1615.6
2015-Jul-22 20:31N 59°29' E 022°27'3115.7
2015-Jul-22 18:32N 59°38' E 023°26'1915.5
2015-Jul-22 17:19N 59°43' E 024°02'1215.1
2015-Jul-22 16:31N 59°48' E 024°24'60 3.9
2015-Jul-22 01:03N 60°00' E 026°21'1019.6
2015-Jul-22 00:32N 60°02' E 026°41'2018.6
2015-Jul-21 23:29N 60°05' E 027°20'7316.5
2015-Jul-21 19:03N 59°59' E 029°46'611.4
2015-Jul-21 18:30N 59°56' E 029°58'7 7.4
2015-Jul-21 17:33N 59°57' E 030°12'0 0.1
2015-Jul-21 16:31N 59°57' E 030°12'0 0.0
2015-Jul-21 15:32N 59°57' E 030°12'0 0.0
2015-Jul-21 14:33N 59°57' E 030°12'0 0.0
2015-Jul-21 13:32N 59°57' E 030°12'0 0.0
2015-Jul-21 12:33N 59°57' E 030°12'0 0.0
2015-Jul-21 11:33N 59°57' E 030°12'0 0.0
2015-Jul-21 10:32N 59°57' E 030°12'0 0.0
2015-Jul-21 09:33N 59°57' E 030°12'0 0.0
2015-Jul-21 08:33N 59°57' E 030°12'0 0.0
2015-Jul-21 07:32N 59°57' E 030°12'0 0.0
2015-Jul-21 06:33N 59°57' E 030°12'0 0.0
2015-Jul-21 05:32N 59°57' E 030°12'0 0.0
2015-Jul-21 04:33N 59°57' E 030°12'3 3.5
2015-Jul-21 03:33N 59°56' E 030°05'1110.6
2015-Jul-21 02:33N 59°59' E 029°44'6013.9
2015-Jul-20 22:12N 60°10' E 027°45'1116.7
2015-Jul-20 21:33N 60°05' E 027°27'1615.6
2015-Jul-20 20:33N 59°59' E 026°58'1515.3
2015-Jul-20 19:33N 59°57' E 026°28'2215.9
2015-Jul-20 18:10N 59°51' E 025°46'1115.9
2015-Jul-20 17:30N 59°48' E 025°25'2613.4
2015-Jul-20 15:33N 59°32' E 024°44'6 5.5
2015-Jul-20 14:33N 59°27' E 024°46'0 0.0
2015-Jul-20 13:23N 59°27' E 024°46'0 0.0
2015-Jul-20 12:32N 59°27' E 024°46'0 0.0
2015-Jul-20 09:29N 59°27' E 024°46'0 0.0
2015-Jul-20 08:20N 59°27' E 024°46'0 0.0
2015-Jul-20 07:32N 59°27' E 024°46'0 0.0
2015-Jul-20 06:29N 59°27' E 024°46'0 0.0
2015-Jul-20 05:32N 59°27' E 024°46'6 6.1
2015-Jul-20 04:33N 59°30' E 024°36'29 9.7
2015-Jul-20 01:33N 59°30' E 023°38'37715.1
2015-Jul-19 00:32N 55°26' E 014°44'  
Track history (hours):
 
Tides and Currents Weather Stations Pressure Air Temp Water Temp Dewpoint Dewpoint Depression Visibility Wind Speed Wind Dir Waves Ship Positions

Aidamar

Last reported at 2015-Jul-28 23:32 UTC. Time now 2015-Jul-29 00:34 UTC.
Position N 60°02' E 027°13'.

Length 253 m; draft 7.3 m.

Type: Passenger vessel. MMSI: 247312900.

Date/timePositionNaut miles runAvg speedWind from/ knotsBaromVisibWave heightAir tempDewpointWater temp
2015-Jul-28 23:32N 60°02' E 027°13'7614.6
2015-Jul-28 18:18N 59°59' E 029°46'810.5
2015-Jul-28 17:33N 59°55' E 029°60'6 5.7
2015-Jul-28 16:31N 59°57' E 030°11'0 0.0
2015-Jul-28 15:32N 59°57' E 030°11'0 0.0
2015-Jul-28 14:33N 59°57' E 030°11'0 0.0
2015-Jul-28 13:31N 59°57' E 030°11'0 0.0
2015-Jul-28 12:32N 59°57' E 030°11'0 0.0
2015-Jul-28 11:32N 59°57' E 030°11'0 0.0
2015-Jul-28 10:32N 59°57' E 030°11'0 0.0
2015-Jul-28 09:32N 59°57' E 030°11'0 0.0
2015-Jul-28 08:30N 59°57' E 030°11'0 0.0
2015-Jul-28 07:31N 59°57' E 030°11'0 0.0
2015-Jul-28 06:31N 59°57' E 030°11'0 0.0
2015-Jul-28 05:31N 59°57' E 030°11'0 0.0
2015-Jul-28 04:33N 59°57' E 030°11'3 3.3
2015-Jul-28 03:33N 59°56' E 030°05'1110.7
2015-Jul-28 02:33N 59°59' E 029°44'1211.8
2015-Jul-28 01:33N 60°02' E 029°21'7214.4
2015-Jul-27 20:33N 59°58' E 026°58'1515.0
2015-Jul-27 19:34N 59°57' E 026°28'5016.1
2015-Jul-27 16:25N 59°43' E 024°52'1113.2
2015-Jul-27 15:33N 59°32' E 024°44'5 1.2
2015-Jul-27 11:07N 59°27' E 024°46'0 0.0
2015-Jul-27 07:26N 59°27' E 024°46'0 0.0
2015-Jul-27 06:31N 59°27' E 024°46'0 0.0
2015-Jul-27 05:33N 59°27' E 024°46'36 8.9
2015-Jul-27 01:33N 59°30' E 023°36'35214.6
2015-Jul-26 01:23N 55°37' E 015°22'1416.3
2015-Jul-26 00:33N 55°31' E 015°01'1615.9
2015-Jul-25 23:33N 55°22' E 014°37'1615.9
2015-Jul-25 22:34N 55°10' E 014°20'1515.1
2015-Jul-25 21:33N 54°60' E 013°60'1615.6
2015-Jul-25 20:33N 54°55' E 013°34'3415.4
2015-Jul-25 18:23N 54°43' E 012°39'1515.4
2015-Jul-25 17:26N 54°35' E 012°19'1315.3
2015-Jul-25 16:34N 54°23' E 012°09'1212.0
2015-Jul-25 15:31N 54°11' E 012°06'0 0.0
2015-Jul-25 12:31N 54°11' E 012°06'0 0.0
2015-Jul-25 11:19N 54°11' E 012°06'0 0.0
2015-Jul-25 10:33N 54°11' E 012°06'0 0.0
2015-Jul-25 09:24N 54°11' E 012°06'0 0.0
2015-Jul-25 08:15N 54°11' E 012°06'0 0.0
2015-Jul-25 07:33N 54°11' E 012°06'0 0.0
2015-Jul-25 06:32N 54°11' E 012°06'0 0.0
2015-Jul-25 05:23N 54°11' E 012°06'0 0.0
2015-Jul-25 04:34N 54°11' E 012°06'4 4.1
2015-Jul-25 03:34N 54°14' E 012°03'1211.7
2015-Jul-25 02:33N 54°26' E 012°02'1514.7
2015-Jul-25 01:32N 54°38' E 012°18'9 9.4
2015-Jul-25 00:34N 54°43' E 012°31'1515.4
2015-Jul-24 23:34N 54°50' E 012°55'1616.1
2015-Jul-24 22:34N 54°56' E 013°21'1616.1
2015-Jul-24 21:34N 55°02' E 013°47'1515.4
2015-Jul-24 20:34N 55°09' E 014°11'1615.6
2015-Jul-24 19:34N 55°21' E 014°28'1615.9
2015-Jul-24 18:34N 55°32' E 014°49'1616.0
2015-Jul-24 17:34N 55°40' E 015°14'1615.7
2015-Jul-24 16:33N 55°47' E 015°39'1915.7
2015-Jul-24 15:22N 55°56' E 016°07'8614.9
2015-Jul-24 09:33N 57°11' E 017°28'134 8.3
2015-Jul-23 17:26N 59°22' E 018°16'4 1.4
2015-Jul-23 14:22N 59°21' E 018°08'0 0.0
2015-Jul-23 13:18N 59°21' E 018°08'0 0.0
2015-Jul-23 12:15N 59°21' E 018°08'0 0.0
2015-Jul-23 11:30N 59°21' E 018°08'0 0.0
2015-Jul-23 10:33N 59°21' E 018°08'0 0.0
2015-Jul-23 09:28N 59°21' E 018°08'0 0.0
2015-Jul-23 08:22N 59°21' E 018°08'1 1.4
2015-Jul-23 07:33N 59°20' E 018°10'10011.1
2015-Jul-22 22:31N 59°32' E 021°26'1515.7
2015-Jul-22 21:33N 59°29' E 021°55'1615.6
2015-Jul-22 20:31N 59°29' E 022°27'3115.7
2015-Jul-22 18:32N 59°38' E 023°26'1915.5
2015-Jul-22 17:19N 59°43' E 024°02'1215.1
2015-Jul-22 16:31N 59°48' E 024°24'60 3.9
2015-Jul-22 01:03N 60°00' E 026°21'1019.6
2015-Jul-22 00:32N 60°02' E 026°41'2018.6
2015-Jul-21 23:29N 60°05' E 027°20'7316.5
2015-Jul-21 19:03N 59°59' E 029°46'611.4
2015-Jul-21 18:30N 59°56' E 029°58'7 7.4
2015-Jul-21 17:33N 59°57' E 030°12'0 0.1
2015-Jul-21 16:31N 59°57' E 030°12'0 0.0
2015-Jul-21 15:32N 59°57' E 030°12'0 0.0
2015-Jul-21 14:33N 59°57' E 030°12'0 0.0
2015-Jul-21 13:32N 59°57' E 030°12'0 0.0
2015-Jul-21 12:33N 59°57' E 030°12'0 0.0
2015-Jul-21 11:33N 59°57' E 030°12'0 0.0
2015-Jul-21 10:32N 59°57' E 030°12'0 0.0
2015-Jul-21 09:33N 59°57' E 030°12'0 0.0
2015-Jul-21 08:33N 59°57' E 030°12'0 0.0
2015-Jul-21 07:32N 59°57' E 030°12'0 0.0
2015-Jul-21 06:33N 59°57' E 030°12'0 0.0
2015-Jul-21 05:32N 59°57' E 030°12'0 0.0
2015-Jul-21 04:33N 59°57' E 030°12'3 3.5
2015-Jul-21 03:33N 59°56' E 030°05'1110.6
2015-Jul-21 02:33N 59°59' E 029°44'6013.9
2015-Jul-20 22:12N 60°10' E 027°45'1116.7
2015-Jul-20 21:33N 60°05' E 027°27'1615.6
2015-Jul-20 20:33N 59°59' E 026°58'1515.3
2015-Jul-20 19:33N 59°57' E 026°28'2215.9
2015-Jul-20 18:10N 59°51' E 025°46'1115.9
2015-Jul-20 17:30N 59°48' E 025°25'2613.4
2015-Jul-20 15:33N 59°32' E 024°44'6 5.5
2015-Jul-20 14:33N 59°27' E 024°46'0 0.0
2015-Jul-20 13:23N 59°27' E 024°46'0 0.0
2015-Jul-20 12:32N 59°27' E 024°46'0 0.0
2015-Jul-20 09:29N 59°27' E 024°46'0 0.0
2015-Jul-20 08:20N 59°27' E 024°46'0 0.0
2015-Jul-20 07:32N 59°27' E 024°46'0 0.0
2015-Jul-20 06:29N 59°27' E 024°46'0 0.0
2015-Jul-20 05:32N 59°27' E 024°46'6 6.1
2015-Jul-20 04:33N 59°30' E 024°36'29 9.7
2015-Jul-20 01:33N 59°30' E 023°38'37715.1
2015-Jul-19 00:32N 55°26' E 014°44'  

Dump ship's entire track history